sensor_id;sensor_type;location;lat;lon;timestamp;pressure;altitude;pressure_sealevel;temperature
15701;BMP180;7950;42.744;23.174;2023-09-19T00:00:48;94764.13;;;14.91
15701;BMP180;7950;42.744;23.174;2023-09-19T00:03:17;94759.09;;;14.89
15701;BMP180;7950;42.744;23.174;2023-09-19T00:05:46;94768.63;;;14.85
15701;BMP180;7950;42.744;23.174;2023-09-19T00:08:14;94761.22;;;14.87
15701;BMP180;7950;42.744;23.174;2023-09-19T00:10:43;94764.38;;;14.89
15701;BMP180;7950;42.744;23.174;2023-09-19T00:13:13;94761.72;;;14.94
15701;BMP180;7950;42.744;23.174;2023-09-19T00:15:45;94755.97;;;14.82
15701;BMP180;7950;42.744;23.174;2023-09-19T00:18:19;94747.25;;;14.82
15701;BMP180;7950;42.744;23.174;2023-09-19T00:20:50;94753.34;;;14.77
15701;BMP180;7950;42.744;23.174;2023-09-19T00:23:20;94751.75;;;14.71
15701;BMP180;7950;42.744;23.174;2023-09-19T00:25:49;94744.34;;;14.63
15701;BMP180;7950;42.744;23.174;2023-09-19T00:28:19;94739.09;;;14.58
15701;BMP180;7950;42.744;23.174;2023-09-19T00:30:48;94747.56;;;14.60
15701;BMP180;7950;42.744;23.174;2023-09-19T00:33:18;94749.66;;;14.53
15701;BMP180;7950;42.744;23.174;2023-09-19T00:35:48;94749.13;;;14.46
15701;BMP180;7950;42.744;23.174;2023-09-19T00:38:17;94757.06;;;14.21
15701;BMP180;7950;42.744;23.174;2023-09-19T00:40:50;94759.19;;;14.29
15701;BMP180;7950;42.744;23.174;2023-09-19T00:43:21;94749.41;;;14.40
15701;BMP180;7950;42.744;23.174;2023-09-19T00:45:54;94747.03;;;14.38
15701;BMP180;7950;42.744;23.174;2023-09-19T00:48:25;94739.38;;;14.37
15701;BMP180;7950;42.744;23.174;2023-09-19T00:50:59;94738.59;;;14.36
15701;BMP180;7950;42.744;23.174;2023-09-19T00:53:33;94734.88;;;14.37
15701;BMP180;7950;42.744;23.174;2023-09-19T00:56:03;94736.22;;;14.45
15701;BMP180;7950;42.744;23.174;2023-09-19T00:58:37;94742.81;;;14.42
15701;BMP180;7950;42.744;23.174;2023-09-19T01:01:07;94742.28;;;14.25
15701;BMP180;7950;42.744;23.174;2023-09-19T01:03:39;94748.31;;;14.16
15701;BMP180;7950;42.744;23.174;2023-09-19T01:06:09;94748.09;;;14.22
15701;BMP180;7950;42.744;23.174;2023-09-19T01:08:38;94745.44;;;14.27
15701;BMP180;7950;42.744;23.174;2023-09-19T01:11:15;94750.22;;;14.30
15701;BMP180;7950;42.744;23.174;2023-09-19T01:14:02;94745.19;;;14.34
15701;BMP180;7950;42.744;23.174;2023-09-19T01:16:54;94751.78;;;14.26
15701;BMP180;7950;42.744;23.174;2023-09-19T01:20:11;94741.22;;;14.16
15701;BMP180;7950;42.744;23.174;2023-09-19T01:22:57;94755.16;;;14.17
15701;BMP180;7950;42.744;23.174;2023-09-19T01:26:06;94745.94;;;14.14
15701;BMP180;7950;42.744;23.174;2023-09-19T01:29:05;94741.97;;;14.07
15701;BMP180;7950;42.744;23.174;2023-09-19T01:31:45;94745.16;;;14.14
15701;BMP180;7950;42.744;23.174;2023-09-19T01:34:14;94749.91;;;14.12
15701;BMP180;7950;42.744;23.174;2023-09-19T01:36:42;94751.22;;;14.14
15701;BMP180;7950;42.744;23.174;2023-09-19T01:39:14;94752.28;;;14.13
15701;BMP180;7950;42.744;23.174;2023-09-19T01:41:58;94752.53;;;14.07
15701;BMP180;7950;42.744;23.174;2023-09-19T01:44:45;94753.34;;;14.12
15701;BMP180;7950;42.744;23.174;2023-09-19T01:47:26;94743.56;;;14.13
15701;BMP180;7950;42.744;23.174;2023-09-19T01:50:07;94751.72;;;13.96
15701;BMP180;7950;42.744;23.174;2023-09-19T01:52:48;94749.91;;;13.97
15701;BMP180;7950;42.744;23.174;2023-09-19T01:55:19;94749.09;;;14.01
15701;BMP180;7950;42.744;23.174;2023-09-19T01:57:56;94749.09;;;13.81
15701;BMP180;7950;42.744;23.174;2023-09-19T02:00:28;94748.56;;;13.89
15701;BMP180;7950;42.744;23.174;2023-09-19T02:02:59;94745.13;;;13.89
15701;BMP180;7950;42.744;23.174;2023-09-19T02:05:30;94734.59;;;13.94
15701;BMP180;7950;42.744;23.174;2023-09-19T02:08:00;94737.47;;;13.87
15701;BMP180;7950;42.744;23.174;2023-09-19T02:10:30;94739.06;;;13.93
15701;BMP180;7950;42.744;23.174;2023-09-19T02:12:58;94738.03;;;13.89
15701;BMP180;7950;42.744;23.174;2023-09-19T02:15:27;94740.13;;;13.87
15701;BMP180;7950;42.744;23.174;2023-09-19T02:17:56;94744.06;;;13.85
15701;BMP180;7950;42.744;23.174;2023-09-19T02:20:28;94741.44;;;13.80
15701;BMP180;7950;42.744;23.174;2023-09-19T02:22:56;94746.47;;;13.96
15701;BMP180;7950;42.744;23.174;2023-09-19T02:25:26;94732.47;;;13.86
15701;BMP180;7950;42.744;23.174;2023-09-19T02:27:55;94740.38;;;13.81
15701;BMP180;7950;42.744;23.174;2023-09-19T02:30:26;94736.97;;;13.85
15701;BMP180;7950;42.744;23.174;2023-09-19T02:32:54;94733.25;;;13.76
15701;BMP180;7950;42.744;23.174;2023-09-19T02:35:23;94729.56;;;13.72
15701;BMP180;7950;42.744;23.174;2023-09-19T02:37:54;94733.78;;;13.83
15701;BMP180;7950;42.744;23.174;2023-09-19T02:40:23;94722.72;;;13.86
15701;BMP180;7950;42.744;23.174;2023-09-19T02:42:55;94716.13;;;13.79
15701;BMP180;7950;42.744;23.174;2023-09-19T02:45:26;94713.50;;;13.84
15701;BMP180;7950;42.744;23.174;2023-09-19T02:47:55;94711.09;;;13.77
15701;BMP180;7950;42.744;23.174;2023-09-19T02:50:24;94702.38;;;13.72
15701;BMP180;7950;42.744;23.174;2023-09-19T02:52:54;94709.47;;;13.56
15701;BMP180;7950;42.744;23.174;2023-09-19T02:55:23;94711.59;;;13.59
15701;BMP180;7950;42.744;23.174;2023-09-19T02:57:53;94703.44;;;13.61
15701;BMP180;7950;42.744;23.174;2023-09-19T03:00:23;94708.16;;;13.64
15701;BMP180;7950;42.744;23.174;2023-09-19T03:02:54;94705.00;;;13.57
15701;BMP180;7950;42.744;23.174;2023-09-19T03:05:24;94710.56;;;13.65
15701;BMP180;7950;42.744;23.174;2023-09-19T03:07:55;94707.41;;;13.63
15701;BMP180;7950;42.744;23.174;2023-09-19T03:10:24;94704.50;;;13.65
15701;BMP180;7950;42.744;23.174;2023-09-19T03:12:53;94704.50;;;13.70
15701;BMP180;7950;42.744;23.174;2023-09-19T03:15:22;94695.50;;;13.56
15701;BMP180;7950;42.744;23.174;2023-09-19T03:17:51;94691.03;;;13.61
15701;BMP180;7950;42.744;23.174;2023-09-19T03:20:21;94692.09;;;13.65
15701;BMP180;7950;42.744;23.174;2023-09-19T03:22:50;94692.59;;;13.57
15701;BMP180;7950;42.744;23.174;2023-09-19T03:25:21;94702.66;;;13.70
15701;BMP180;7950;42.744;23.174;2023-09-19T03:27:52;94696.56;;;13.60
15701;BMP180;7950;42.744;23.174;2023-09-19T03:30:21;94707.91;;;13.70
15701;BMP180;7950;42.744;23.174;2023-09-19T03:32:50;94706.34;;;13.69
15701;BMP180;7950;42.744;23.174;2023-09-19T03:35:19;94713.22;;;13.80
15701;BMP180;7950;42.744;23.174;2023-09-19T03:37:48;94717.97;;;13.78
15701;BMP180;7950;42.744;23.174;2023-09-19T03:40:17;94715.25;;;13.53
15701;BMP180;7950;42.744;23.174;2023-09-19T03:42:49;94705.78;;;13.57
15701;BMP180;7950;42.744;23.174;2023-09-19T03:45:18;94714.47;;;13.48
15701;BMP180;7950;42.744;23.174;2023-09-19T03:47:47;94709.22;;;13.58
15701;BMP180;7950;42.744;23.174;2023-09-19T03:50:16;94714.22;;;13.49
15701;BMP180;7950;42.744;23.174;2023-09-19T03:52:45;94721.56;;;13.32
15701;BMP180;7950;42.744;23.174;2023-09-19T03:55:14;94716.31;;;13.42
15701;BMP180;7950;42.744;23.174;2023-09-19T03:57:49;94727.41;;;13.49
15701;BMP180;7950;42.744;23.174;2023-09-19T04:00:20;94724.22;;;13.47
15701;BMP180;7950;42.744;23.174;2023-09-19T04:02:52;94722.41;;;13.53
15701;BMP180;7950;42.744;23.174;2023-09-19T04:05:23;94721.31;;;13.44
15701;BMP180;7950;42.744;23.174;2023-09-19T04:07:52;94723.97;;;13.44
15701;BMP180;7950;42.744;23.174;2023-09-19T04:10:21;94724.72;;;13.44
15701;BMP180;7950;42.744;23.174;2023-09-19T04:12:56;94728.19;;;13.60
15701;BMP180;7950;42.744;23.174;2023-09-19T04:15:24;94721.09;;;13.60
15701;BMP180;7950;42.744;23.174;2023-09-19T04:17:53;94721.34;;;13.69
15701;BMP180;7950;42.744;23.174;2023-09-19T04:20:23;94721.91;;;13.76
15701;BMP180;7950;42.744;23.174;2023-09-19T04:22:51;94719.53;;;13.64
15701;BMP180;7950;42.744;23.174;2023-09-19T04:25:21;94706.84;;;13.66
15701;BMP180;7950;42.744;23.174;2023-09-19T04:27:49;94704.78;;;13.78
15701;BMP180;7950;42.744;23.174;2023-09-19T04:30:20;94718.50;;;13.80
15701;BMP180;7950;42.744;23.174;2023-09-19T04:32:49;94717.69;;;13.90
15701;BMP180;7950;42.744;23.174;2023-09-19T04:35:19;94708.50;;;14.07
15701;BMP180;7950;42.744;23.174;2023-09-19T04:37:48;94707.16;;;14.10
15701;BMP180;7950;42.744;23.174;2023-09-19T04:40:18;94708.22;;;14.14
15701;BMP180;7950;42.744;23.174;2023-09-19T04:42:53;94710.63;;;14.20
15701;BMP180;7950;42.744;23.174;2023-09-19T04:45:28;94719.56;;;14.14
15701;BMP180;7950;42.744;23.174;2023-09-19T04:47:56;94714.31;;;14.34
15701;BMP180;7950;42.744;23.174;2023-09-19T04:50:25;94705.34;;;14.35
15701;BMP180;7950;42.744;23.174;2023-09-19T04:52:55;94712.16;;;14.46
15701;BMP180;7950;42.744;23.174;2023-09-19T04:55:24;94702.38;;;14.57
15701;BMP180;7950;42.744;23.174;2023-09-19T04:57:53;94705.28;;;14.65
15701;BMP180;7950;42.744;23.174;2023-09-19T05:00:24;94713.72;;;14.77
15701;BMP180;7950;42.744;23.174;2023-09-19T05:02:56;94717.91;;;14.88
15701;BMP180;7950;42.744;23.174;2023-09-19T05:05:25;94709.16;;;14.98
15701;BMP180;7950;42.744;23.174;2023-09-19T05:07:54;94722.34;;;15.08
15701;BMP180;7950;42.744;23.174;2023-09-19T05:10:23;94710.94;;;15.17
15701;BMP180;7950;42.744;23.174;2023-09-19T05:12:53;94718.78;;;15.42
15701;BMP180;7950;42.744;23.174;2023-09-19T05:15:22;94724.75;;;15.63
15701;BMP180;7950;42.744;23.174;2023-09-19T05:17:53;94715.94;;;15.77
15701;BMP180;7950;42.744;23.174;2023-09-19T05:20:25;94721.06;;;16.02
15701;BMP180;7950;42.744;23.174;2023-09-19T05:23:01;94714.03;;;16.21
15701;BMP180;7950;42.744;23.174;2023-09-19T05:25:32;94707.28;;;16.39
15701;BMP180;7950;42.744;23.174;2023-09-19T05:28:06;94711.91;;;16.57
15701;BMP180;7950;42.744;23.174;2023-09-19T05:30:36;94712.81;;;16.71
15701;BMP180;7950;42.744;23.174;2023-09-19T05:33:07;94705.31;;;16.78
15701;BMP180;7950;42.744;23.174;2023-09-19T05:35:36;94701.03;;;16.82
15701;BMP180;7950;42.744;23.174;2023-09-19T05:38:07;94701.22;;;16.91
15701;BMP180;7950;42.744;23.174;2023-09-19T05:40:39;94705.31;;;17.02
15701;BMP180;7950;42.744;23.174;2023-09-19T05:43:10;94700.22;;;17.10
15701;BMP180;7950;42.744;23.174;2023-09-19T05:45:38;94702.78;;;17.15
15701;BMP180;7950;42.744;23.174;2023-09-19T05:48:11;94693.88;;;17.30
15701;BMP180;7950;42.744;23.174;2023-09-19T05:50:41;94692.91;;;17.44
15701;BMP180;7950;42.744;23.174;2023-09-19T05:53:10;94697.44;;;17.62
15701;BMP180;7950;42.744;23.174;2023-09-19T05:55:40;94683.44;;;17.75
15701;BMP180;7950;42.744;23.174;2023-09-19T05:58:09;94684.81;;;17.91
15701;BMP180;7950;42.744;23.174;2023-09-19T06:00:41;94683.28;;;18.04
15701;BMP180;7950;42.744;23.174;2023-09-19T06:03:13;94680.78;;;18.12
15701;BMP180;7950;42.744;23.174;2023-09-19T06:05:42;94689.88;;;18.25
15701;BMP180;7950;42.744;23.174;2023-09-19T06:08:11;94680.38;;;18.37
15701;BMP180;7950;42.744;23.174;2023-09-19T06:10:39;94682.97;;;18.42
15701;BMP180;7950;42.744;23.174;2023-09-19T06:13:08;94676.81;;;18.60
15701;BMP180;7950;42.744;23.174;2023-09-19T06:15:38;94678.78;;;18.82
15701;BMP180;7950;42.744;23.174;2023-09-19T06:18:13;94674.09;;;18.92
15701;BMP180;7950;42.744;23.174;2023-09-19T06:20:47;94668.75;;;19.06
15701;BMP180;7950;42.744;23.174;2023-09-19T06:23:20;94669.72;;;19.10
15701;BMP180;7950;42.744;23.174;2023-09-19T06:25:50;94674.47;;;19.13
15701;BMP180;7950;42.744;23.174;2023-09-19T06:28:19;94670.31;;;19.20
15701;BMP180;7950;42.744;23.174;2023-09-19T06:30:51;94679.03;;;19.26
15701;BMP180;7950;42.744;23.174;2023-09-19T06:33:22;94676.06;;;19.27
15701;BMP180;7950;42.744;23.174;2023-09-19T06:35:50;94673.50;;;18.95
15701;BMP180;7950;42.744;23.174;2023-09-19T06:38:27;94676.03;;;18.87
15701;BMP180;7950;42.744;23.174;2023-09-19T06:40:58;94665.81;;;18.94
15701;BMP180;7950;42.744;23.174;2023-09-19T06:43:27;94669.84;;;19.05
15701;BMP180;7950;42.744;23.174;2023-09-19T06:45:56;94666.03;;;19.11
15701;BMP180;7950;42.744;23.174;2023-09-19T06:48:26;94668.97;;;19.09
15701;BMP180;7950;42.744;23.174;2023-09-19T06:50:56;94674.88;;;19.20
15701;BMP180;7950;42.744;23.174;2023-09-19T06:53:30;94686.53;;;19.24
15701;BMP180;7950;42.744;23.174;2023-09-19T06:55:58;94677.53;;;19.20
15701;BMP180;7950;42.744;23.174;2023-09-19T06:58:28;94685.50;;;19.20
15701;BMP180;7950;42.744;23.174;2023-09-19T07:00:56;94680.13;;;19.25
15701;BMP180;7950;42.744;23.174;2023-09-19T07:03:26;94677.84;;;19.32
15701;BMP180;7950;42.744;23.174;2023-09-19T07:05:56;94688.47;;;19.45
15701;BMP180;7950;42.744;23.174;2023-09-19T07:08:26;94692.28;;;19.53
15701;BMP180;7950;42.744;23.174;2023-09-19T07:10:56;94692.28;;;19.53
15701;BMP180;7950;42.744;23.174;2023-09-19T07:13:25;94690.22;;;19.50
15701;BMP180;7950;42.744;23.174;2023-09-19T07:15:58;94692.47;;;19.56
15701;BMP180;7950;42.744;23.174;2023-09-19T07:33:14;94697.13;;;20.00
15701;BMP180;7950;42.744;23.174;2023-09-19T07:35:45;94694.75;;;20.12
15701;BMP180;7950;42.744;23.174;2023-09-19T07:38:14;94696.66;;;20.20
15701;BMP180;7950;42.744;23.174;2023-09-19T07:40:44;94693.28;;;20.28
15701;BMP180;7950;42.744;23.174;2023-09-19T07:43:12;94697.50;;;20.29
15701;BMP180;7950;42.744;23.174;2023-09-19T07:45:41;94693.16;;;20.33
15701;BMP180;7950;42.744;23.174;2023-09-19T07:48:10;94692.94;;;20.43
15701;BMP180;7950;42.744;23.174;2023-09-19T07:50:43;94687.63;;;20.51
15701;BMP180;7950;42.744;23.174;2023-09-19T07:53:12;94683.56;;;20.54
15701;BMP180;7950;42.744;23.174;2023-09-19T07:55:42;94674.25;;;20.65
15701;BMP180;7950;42.744;23.174;2023-09-19T07:58:15;94665.75;;;20.63
15701;BMP180;7950;42.744;23.174;2023-09-19T08:00:44;94660.38;;;20.54
15701;BMP180;7950;42.744;23.174;2023-09-19T08:03:13;94675.28;;;20.55
15701;BMP180;7950;42.744;23.174;2023-09-19T08:05:45;94667.19;;;20.69
15701;BMP180;7950;42.744;23.174;2023-09-19T08:08:16;94663.16;;;20.80
15701;BMP180;7950;42.744;23.174;2023-09-19T08:10:44;94660.22;;;20.90
15701;BMP180;7950;42.744;23.174;2023-09-19T08:13:16;94660.41;;;20.93
15701;BMP180;7950;42.744;23.174;2023-09-19T08:15:45;94660.13;;;20.95
15701;BMP180;7950;42.744;23.174;2023-09-19T08:18:15;94659.09;;;21.13
15701;BMP180;7950;42.744;23.174;2023-09-19T08:20:52;94670.44;;;21.27
15701;BMP180;7950;42.744;23.174;2023-09-19T08:23:20;94672.38;;;21.43
15701;BMP180;7950;42.744;23.174;2023-09-19T08:25:50;94661.38;;;21.62
15701;BMP180;7950;42.744;23.174;2023-09-19T08:28:19;94670.34;;;21.66
15701;BMP180;7950;42.744;23.174;2023-09-19T08:30:51;94657.56;;;21.29
15701;BMP180;7950;42.744;23.174;2023-09-19T08:33:22;94655.50;;;21.26
15701;BMP180;7950;42.744;23.174;2023-09-19T08:35:52;94650.31;;;21.21
15701;BMP180;7950;42.744;23.174;2023-09-19T08:38:20;94647.81;;;21.16
15701;BMP180;7950;42.744;23.174;2023-09-19T08:40:49;94647.50;;;21.26
15701;BMP180;7950;42.744;23.174;2023-09-19T08:43:21;94637.19;;;21.33
15701;BMP180;7950;42.744;23.174;2023-09-19T08:45:57;94642.06;;;21.39
15701;BMP180;7950;42.744;23.174;2023-09-19T08:48:28;94637.19;;;21.41
15701;BMP180;7950;42.744;23.174;2023-09-19T08:51:03;94640.53;;;21.55
15701;BMP180;7950;42.744;23.174;2023-09-19T08:53:41;94640.25;;;21.74
15701;BMP180;7950;42.744;23.174;2023-09-19T08:56:17;94632.53;;;21.89
15701;BMP180;7950;42.744;23.174;2023-09-19T08:58:50;94636.16;;;22.02
15701;BMP180;7950;42.744;23.174;2023-09-19T09:01:21;94635.69;;;22.17
15701;BMP180;7950;42.744;23.174;2023-09-19T09:03:54;94640.22;;;22.16
15701;BMP180;7950;42.744;23.174;2023-09-19T09:06:25;94635.69;;;22.17
15701;BMP180;7950;42.744;23.174;2023-09-19T09:08:55;94637.25;;;22.18
15701;BMP180;7950;42.744;23.174;2023-09-19T09:11:24;94621.22;;;22.26
15701;BMP180;7950;42.744;23.174;2023-09-19T09:13:55;94621.97;;;22.35
15701;BMP180;7950;42.744;23.174;2023-09-19T09:16:25;94621.63;;;22.37
15701;BMP180;7950;42.744;23.174;2023-09-19T09:18:54;94615.34;;;22.50
15701;BMP180;7950;42.744;23.174;2023-09-19T09:21:26;94615.66;;;22.57
15701;BMP180;7950;42.744;23.174;2023-09-19T09:23:54;94611.53;;;22.68
15701;BMP180;7950;42.744;23.174;2023-09-19T09:26:42;94601.34;;;22.44
15701;BMP180;7950;42.744;23.174;2023-09-19T09:29:11;94598.66;;;22.61
15701;BMP180;7950;42.744;23.174;2023-09-19T09:31:46;94596.91;;;22.65
15701;BMP180;7950;42.744;23.174;2023-09-19T09:34:16;94597.31;;;22.76
15701;BMP180;7950;42.744;23.174;2023-09-19T09:36:48;94588.16;;;22.85
15701;BMP180;7950;42.744;23.174;2023-09-19T09:39:30;94587.28;;;23.02
15701;BMP180;7950;42.744;23.174;2023-09-19T09:41:59;94589.16;;;23.10
15701;BMP180;7950;42.744;23.174;2023-09-19T09:44:34;94588.69;;;23.08
15701;BMP180;7950;42.744;23.174;2023-09-19T09:47:03;94586.69;;;22.96
15701;BMP180;7950;42.744;23.174;2023-09-19T09:49:49;94580.75;;;22.91
15701;BMP180;7950;42.744;23.174;2023-09-19T09:52:46;94584.88;;;22.88
15701;BMP180;7950;42.744;23.174;2023-09-19T09:55:15;94585.19;;;22.87
15701;BMP180;7950;42.744;23.174;2023-09-19T09:57:46;94579.94;;;22.99
15701;BMP180;7950;42.744;23.174;2023-09-19T10:00:23;94580.16;;;23.14
15701;BMP180;7950;42.744;23.174;2023-09-19T10:02:59;94563.75;;;23.16
15701;BMP180;7950;42.744;23.174;2023-09-19T10:05:28;94576.53;;;23.19
15701;BMP180;7950;42.744;23.174;2023-09-19T10:08:13;94572.22;;;23.27
15701;BMP180;7950;42.744;23.174;2023-09-19T10:10:46;94579.94;;;23.28
15701;BMP180;7950;42.744;23.174;2023-09-19T10:13:32;94581.50;;;23.29
15701;BMP180;7950;42.744;23.174;2023-09-19T10:16:08;94573.34;;;23.26
15701;BMP180;7950;42.744;23.174;2023-09-19T10:18:40;94579.94;;;23.28
15701;BMP180;7950;42.744;23.174;2023-09-19T10:21:11;94584.47;;;23.36
15701;BMP180;7950;42.744;23.174;2023-09-19T10:23:43;94578.91;;;23.41
15701;BMP180;7950;42.744;23.174;2023-09-19T10:26:17;94573.56;;;23.41
15701;BMP180;7950;42.744;23.174;2023-09-19T10:28:49;94573.16;;;23.31
15701;BMP180;7950;42.744;23.174;2023-09-19T10:31:20;94564.00;;;23.32
15701;BMP180;7950;42.744;23.174;2023-09-19T10:33:53;94567.91;;;23.34
15701;BMP180;7950;42.744;23.174;2023-09-19T10:36:24;94570.34;;;23.27
15701;BMP180;7950;42.744;23.174;2023-09-19T10:38:58;94559.72;;;23.39
15701;BMP180;7950;42.744;23.174;2023-09-19T10:41:30;94559.84;;;23.22
15701;BMP180;7950;42.744;23.174;2023-09-19T10:44:04;94548.66;;;23.20
15701;BMP180;7950;42.744;23.174;2023-09-19T10:46:33;94552.25;;;22.95
15701;BMP180;7950;42.744;23.174;2023-09-19T10:49:02;94549.19;;;23.05
15701;BMP180;7950;42.744;23.174;2023-09-19T10:51:40;94548.81;;;23.15
15701;BMP180;7950;42.744;23.174;2023-09-19T10:54:16;94539.97;;;23.23
15701;BMP180;7950;42.744;23.174;2023-09-19T10:56:49;94543.38;;;23.32
15701;BMP180;7950;42.744;23.174;2023-09-19T10:59:21;94550.56;;;23.40
15701;BMP180;7950;42.744;23.174;2023-09-19T11:01:54;94539.25;;;23.55
15701;BMP180;7950;42.744;23.174;2023-09-19T11:04:28;94537.78;;;23.66
15701;BMP180;7950;42.744;23.174;2023-09-19T11:07:08;94537.78;;;23.66
15701;BMP180;7950;42.744;23.174;2023-09-19T11:09:49;94533.75;;;23.72
15701;BMP180;7950;42.744;23.174;2023-09-19T11:12:48;94527.09;;;23.78
15701;BMP180;7950;42.744;23.174;2023-09-19T11:18:58;94524.66;;;24.06
15701;BMP180;7950;42.744;23.174;2023-09-19T11:21:56;94518.75;;;24.12
15701;BMP180;7950;42.744;23.174;2023-09-19T11:24:30;94509.38;;;24.06
15701;BMP180;7950;42.744;23.174;2023-09-19T11:27:14;94509.09;;;23.99
15701;BMP180;7950;42.744;23.174;2023-09-19T11:29:44;94496.19;;;24.13
15701;BMP180;7950;42.744;23.174;2023-09-19T11:32:13;94497.47;;;24.40
15701;BMP180;7950;42.744;23.174;2023-09-19T11:34:48;94487.56;;;24.64
15701;BMP180;7950;42.744;23.174;2023-09-19T11:38:04;94492.44;;;24.50
15701;BMP180;7950;42.744;23.174;2023-09-19T11:40:44;94484.66;;;24.69
15701;BMP180;7950;42.744;23.174;2023-09-19T11:43:32;94484.66;;;24.69
15701;BMP180;7950;42.744;23.174;2023-09-19T11:46:09;94477.84;;;24.72
15701;BMP180;7950;42.744;23.174;2023-09-19T11:48:42;94476.19;;;24.67
15701;BMP180;7950;42.744;23.174;2023-09-19T11:51:13;94468.66;;;24.73
15701;BMP180;7950;42.744;23.174;2023-09-19T11:53:48;94465.09;;;24.69
15701;BMP180;7950;42.744;23.174;2023-09-19T11:56:20;94461.59;;;24.44
15701;BMP180;7950;42.744;23.174;2023-09-19T11:58:54;94458.72;;;24.61
15701;BMP180;7950;42.744;23.174;2023-09-19T12:01:31;94446.66;;;24.67
15701;BMP180;7950;42.744;23.174;2023-09-19T12:04:02;94449.44;;;24.83
15701;BMP180;7950;42.744;23.174;2023-09-19T12:19:38;94420.81;;;25.38
15701;BMP180;7950;42.744;23.174;2023-09-19T12:22:07;94420.59;;;25.59
15701;BMP180;7950;42.744;23.174;2023-09-19T12:24:36;94413.78;;;25.77
15701;BMP180;7950;42.744;23.174;2023-09-19T12:27:09;94419.31;;;25.68
15701;BMP180;7950;42.744;23.174;2023-09-19T12:29:44;94416.72;;;25.72
15701;BMP180;7950;42.744;23.174;2023-09-19T12:32:13;94418.03;;;25.78
15701;BMP180;7950;42.744;23.174;2023-09-19T12:34:51;94411.97;;;25.81
15701;BMP180;7950;42.744;23.174;2023-09-19T12:37:22;94421.66;;;25.70
15701;BMP180;7950;42.744;23.174;2023-09-19T12:40:05;94412.19;;;25.60
15701;BMP180;7950;42.744;23.174;2023-09-19T12:42:44;94414.44;;;25.58
15701;BMP180;7950;42.744;23.174;2023-09-19T12:45:14;94409.63;;;25.79
15701;BMP180;7950;42.744;23.174;2023-09-19T12:48:18;94407.13;;;25.86
15701;BMP180;7950;42.744;23.174;2023-09-19T12:51:15;94401.16;;;25.77
15701;BMP180;7950;42.744;23.174;2023-09-19T12:53:57;94401.81;;;25.74
15701;BMP180;7950;42.744;23.174;2023-09-19T12:56:26;94394.78;;;25.70
15701;BMP180;7950;42.744;23.174;2023-09-19T12:58:57;94393.69;;;25.86
15701;BMP180;7950;42.744;23.174;2023-09-19T13:01:28;94391.09;;;25.90
15701;BMP180;7950;42.744;23.174;2023-09-19T13:04:18;94386.03;;;25.73
15701;BMP180;7950;42.744;23.174;2023-09-19T13:06:50;94380.59;;;25.69
15701;BMP180;7950;42.744;23.174;2023-09-19T13:09:22;94368.91;;;25.77
15701;BMP180;7950;42.744;23.174;2023-09-19T13:11:52;94368.91;;;25.77
15701;BMP180;7950;42.744;23.174;2023-09-19T13:14:23;94369.13;;;25.72
15701;BMP180;7950;42.744;23.174;2023-09-19T13:16:57;94375.81;;;25.78
15701;BMP180;7950;42.744;23.174;2023-09-19T13:19:39;94371.03;;;25.56
15701;BMP180;7950;42.744;23.174;2023-09-19T13:22:38;94372.69;;;25.76
15701;BMP180;7950;42.744;23.174;2023-09-19T13:25:10;94372.00;;;25.79
15701;BMP180;7950;42.744;23.174;2023-09-19T13:27:43;94360.66;;;25.86
15701;BMP180;7950;42.744;23.174;2023-09-19T13:30:13;94361.03;;;26.00
15701;BMP180;7950;42.744;23.174;2023-09-19T13:32:43;94360.16;;;26.11
15701;BMP180;7950;42.744;23.174;2023-09-19T13:35:12;94353.66;;;26.12
15701;BMP180;7950;42.744;23.174;2023-09-19T13:37:43;94357.19;;;26.16
15701;BMP180;7950;42.744;23.174;2023-09-19T13:40:15;94354.00;;;26.26
15701;BMP180;7950;42.744;23.174;2023-09-19T13:42:44;94353.53;;;26.40
15701;BMP180;7950;42.744;23.174;2023-09-19T13:45:13;94347.81;;;26.41
15701;BMP180;7950;42.744;23.174;2023-09-19T13:47:45;94350.44;;;26.38
15701;BMP180;7950;42.744;23.174;2023-09-19T13:50:14;94357.19;;;26.32
15701;BMP180;7950;42.744;23.174;2023-09-19T13:52:45;94355.88;;;26.41
15701;BMP180;7950;42.744;23.174;2023-09-19T13:55:15;94348.50;;;26.38
15701;BMP180;7950;42.744;23.174;2023-09-19T13:57:47;94345.81;;;26.38
15701;BMP180;7950;42.744;23.174;2023-09-19T14:00:20;94343.34;;;26.49
15701;BMP180;7950;42.744;23.174;2023-09-19T14:02:49;94352.97;;;26.50
15701;BMP180;7950;42.744;23.174;2023-09-19T14:05:19;94350.28;;;26.50
15701;BMP180;7950;42.744;23.174;2023-09-19T14:07:50;94350.22;;;26.62
15701;BMP180;7950;42.744;23.174;2023-09-19T14:10:19;94350.56;;;26.60
15701;BMP180;7950;42.744;23.174;2023-09-19T14:12:48;94347.69;;;26.53
15701;BMP180;7950;42.744;23.174;2023-09-19T14:15:17;94348.94;;;26.40
15701;BMP180;7950;42.744;23.174;2023-09-19T14:17:46;94342.84;;;26.43
15701;BMP180;7950;42.744;23.174;2023-09-19T14:20:14;94339.66;;;26.38
15701;BMP180;7950;42.744;23.174;2023-09-19T14:22:43;94338.88;;;26.37
15701;BMP180;7950;42.744;23.174;2023-09-19T14:25:13;94340.19;;;26.28
15701;BMP180;7950;42.744;23.174;2023-09-19T14:27:42;94335.31;;;26.33
15701;BMP180;7950;42.744;23.174;2023-09-19T14:30:12;94334.72;;;26.24
15701;BMP180;7950;42.744;23.174;2023-09-19T14:32:41;94339.09;;;26.13
15701;BMP180;7950;42.744;23.174;2023-09-19T14:35:10;94331.38;;;25.96
15701;BMP180;7950;42.744;23.174;2023-09-19T14:37:42;94324.00;;;25.93
15701;BMP180;7950;42.744;23.174;2023-09-19T14:40:14;94323.91;;;25.90
15701;BMP180;7950;42.744;23.174;2023-09-19T14:42:44;94325.78;;;25.89
15701;BMP180;7950;42.744;23.174;2023-09-19T14:45:15;94319.66;;;25.73
15701;BMP180;7950;42.744;23.174;2023-09-19T14:47:46;94327.28;;;25.71
15701;BMP180;7950;42.744;23.174;2023-09-19T14:50:16;94316.09;;;25.69
15701;BMP180;7950;42.744;23.174;2023-09-19T14:52:44;94316.38;;;25.64
15701;BMP180;7950;42.744;23.174;2023-09-19T14:55:15;94314.44;;;25.49
15701;BMP180;7950;42.744;23.174;2023-09-19T14:57:43;94316.50;;;25.56
15701;BMP180;7950;42.744;23.174;2023-09-19T15:00:14;94318.44;;;25.55
15701;BMP180;7950;42.744;23.174;2023-09-19T15:02:44;94307.16;;;25.50
15701;BMP180;7950;42.744;23.174;2023-09-19T15:05:16;94312.34;;;25.43
15701;BMP180;7950;42.744;23.174;2023-09-19T15:07:47;94314.84;;;25.36
15701;BMP180;7950;42.744;23.174;2023-09-19T15:10:17;94319.22;;;25.28